sensor_id;sensor_type;location;lat;lon;timestamp;P1;durP1;ratioP1;P2;durP2;ratioP2
2868;SDS011;1442;47.448;8.582;2023-12-20T00:02:14;10.32;;;6.60;;
2868;SDS011;1442;47.448;8.582;2023-12-20T00:04:42;10.88;;;7.05;;
2868;SDS011;1442;47.448;8.582;2023-12-20T00:07:09;9.20;;;6.72;;
2868;SDS011;1442;47.448;8.582;2023-12-20T00:09:35;11.13;;;7.20;;
2868;SDS011;1442;47.448;8.582;2023-12-20T00:12:02;15.82;;;7.78;;
2868;SDS011;1442;47.448;8.582;2023-12-20T00:14:29;10.38;;;6.07;;
2868;SDS011;1442;47.448;8.582;2023-12-20T00:16:56;9.95;;;6.95;;
2868;SDS011;1442;47.448;8.582;2023-12-20T00:19:23;10.88;;;7.22;;
2868;SDS011;1442;47.448;8.582;2023-12-20T00:21:51;9.98;;;6.32;;
2868;SDS011;1442;47.448;8.582;2023-12-20T00:24:17;9.07;;;5.82;;
2868;SDS011;1442;47.448;8.582;2023-12-20T00:26:45;10.50;;;6.53;;
2868;SDS011;1442;47.448;8.582;2023-12-20T00:29:12;10.40;;;6.85;;
2868;SDS011;1442;47.448;8.582;2023-12-20T00:31:39;16.42;;;7.55;;
2868;SDS011;1442;47.448;8.582;2023-12-20T00:34:05;14.48;;;7.45;;
2868;SDS011;1442;47.448;8.582;2023-12-20T00:36:32;12.57;;;7.40;;
2868;SDS011;1442;47.448;8.582;2023-12-20T00:39:00;14.05;;;7.53;;
2868;SDS011;1442;47.448;8.582;2023-12-20T00:41:28;12.57;;;8.18;;
2868;SDS011;1442;47.448;8.582;2023-12-20T00:43:55;12.93;;;7.07;;
2868;SDS011;1442;47.448;8.582;2023-12-20T00:46:21;11.68;;;6.97;;
2868;SDS011;1442;47.448;8.582;2023-12-20T00:48:48;11.27;;;5.65;;
2868;SDS011;1442;47.448;8.582;2023-12-20T00:51:15;9.30;;;6.63;;
2868;SDS011;1442;47.448;8.582;2023-12-20T00:53:41;10.82;;;6.68;;
2868;SDS011;1442;47.448;8.582;2023-12-20T00:56:10;9.05;;;6.03;;
2868;SDS011;1442;47.448;8.582;2023-12-20T00:58:37;10.95;;;7.18;;
2868;SDS011;1442;47.448;8.582;2023-12-20T01:01:03;9.82;;;6.47;;
2868;SDS011;1442;47.448;8.582;2023-12-20T01:03:30;12.82;;;6.63;;
2868;SDS011;1442;47.448;8.582;2023-12-20T01:05:57;11.25;;;6.90;;
2868;SDS011;1442;47.448;8.582;2023-12-20T01:08:23;9.02;;;6.70;;
2868;SDS011;1442;47.448;8.582;2023-12-20T01:10:50;11.00;;;6.55;;
2868;SDS011;1442;47.448;8.582;2023-12-20T01:13:19;10.65;;;6.32;;
2868;SDS011;1442;47.448;8.582;2023-12-20T01:15:46;9.75;;;6.50;;
2868;SDS011;1442;47.448;8.582;2023-12-20T01:18:13;9.05;;;6.45;;
2868;SDS011;1442;47.448;8.582;2023-12-20T01:20:40;12.07;;;6.40;;
2868;SDS011;1442;47.448;8.582;2023-12-20T01:23:07;10.90;;;6.57;;
2868;SDS011;1442;47.448;8.582;2023-12-20T01:25:34;8.85;;;6.18;;
2868;SDS011;1442;47.448;8.582;2023-12-20T01:28:01;11.10;;;6.18;;
2868;SDS011;1442;47.448;8.582;2023-12-20T01:30:29;11.75;;;6.35;;
2868;SDS011;1442;47.448;8.582;2023-12-20T01:32:56;10.05;;;6.35;;
2868;SDS011;1442;47.448;8.582;2023-12-20T01:35:23;10.27;;;6.55;;
2868;SDS011;1442;47.448;8.582;2023-12-20T01:37:49;10.20;;;6.45;;
2868;SDS011;1442;47.448;8.582;2023-12-20T01:40:16;9.65;;;6.30;;
2868;SDS011;1442;47.448;8.582;2023-12-20T01:42:43;10.82;;;6.38;;
2868;SDS011;1442;47.448;8.582;2023-12-20T01:45:10;9.23;;;6.22;;
2868;SDS011;1442;47.448;8.582;2023-12-20T01:47:38;12.13;;;7.00;;
2868;SDS011;1442;47.448;8.582;2023-12-20T01:50:05;9.85;;;6.20;;
2868;SDS011;1442;47.448;8.582;2023-12-20T01:52:33;11.88;;;6.80;;
2868;SDS011;1442;47.448;8.582;2023-12-20T01:55:01;9.93;;;6.53;;
2868;SDS011;1442;47.448;8.582;2023-12-20T01:57:29;12.35;;;6.50;;
2868;SDS011;1442;47.448;8.582;2023-12-20T01:59:57;10.60;;;6.35;;
2868;SDS011;1442;47.448;8.582;2023-12-20T02:02:24;12.50;;;7.35;;
2868;SDS011;1442;47.448;8.582;2023-12-20T02:04:54;9.77;;;6.47;;
2868;SDS011;1442;47.448;8.582;2023-12-20T02:07:21;9.00;;;6.68;;
2868;SDS011;1442;47.448;8.582;2023-12-20T02:09:49;9.23;;;6.00;;
2868;SDS011;1442;47.448;8.582;2023-12-20T02:12:16;10.30;;;6.18;;
2868;SDS011;1442;47.448;8.582;2023-12-20T02:14:43;10.45;;;6.13;;
2868;SDS011;1442;47.448;8.582;2023-12-20T02:17:09;9.88;;;6.32;;
2868;SDS011;1442;47.448;8.582;2023-12-20T02:19:36;8.80;;;5.93;;
2868;SDS011;1442;47.448;8.582;2023-12-20T02:22:08;10.60;;;6.57;;
2868;SDS011;1442;47.448;8.582;2023-12-20T02:24:35;9.18;;;5.80;;
2868;SDS011;1442;47.448;8.582;2023-12-20T02:27:02;9.90;;;6.03;;
2868;SDS011;1442;47.448;8.582;2023-12-20T02:29:31;9.88;;;6.57;;
2868;SDS011;1442;47.448;8.582;2023-12-20T02:31:58;9.85;;;6.68;;
2868;SDS011;1442;47.448;8.582;2023-12-20T02:34:25;10.25;;;6.38;;
2868;SDS011;1442;47.448;8.582;2023-12-20T02:36:52;7.97;;;5.85;;
2868;SDS011;1442;47.448;8.582;2023-12-20T02:39:20;9.45;;;5.78;;
2868;SDS011;1442;47.448;8.582;2023-12-20T02:41:48;8.93;;;6.40;;
2868;SDS011;1442;47.448;8.582;2023-12-20T02:44:15;8.55;;;6.00;;
2868;SDS011;1442;47.448;8.582;2023-12-20T02:46:41;10.55;;;5.95;;
2868;SDS011;1442;47.448;8.582;2023-12-20T02:49:08;9.95;;;6.47;;
2868;SDS011;1442;47.448;8.582;2023-12-20T02:51:35;8.65;;;6.05;;
2868;SDS011;1442;47.448;8.582;2023-12-20T02:54:03;10.02;;;5.97;;
2868;SDS011;1442;47.448;8.582;2023-12-20T02:56:31;11.20;;;6.32;;
2868;SDS011;1442;47.448;8.582;2023-12-20T02:58:58;9.63;;;6.00;;
2868;SDS011;1442;47.448;8.582;2023-12-20T03:01:25;8.25;;;5.60;;
2868;SDS011;1442;47.448;8.582;2023-12-20T03:03:52;8.00;;;5.75;;
2868;SDS011;1442;47.448;8.582;2023-12-20T03:06:19;9.23;;;5.57;;
2868;SDS011;1442;47.448;8.582;2023-12-20T03:08:45;10.02;;;6.75;;
2868;SDS011;1442;47.448;8.582;2023-12-20T03:11:12;8.00;;;6.07;;
2868;SDS011;1442;47.448;8.582;2023-12-20T03:13:40;9.05;;;5.90;;
2868;SDS011;1442;47.448;8.582;2023-12-20T03:16:10;10.45;;;6.00;;
2868;SDS011;1442;47.448;8.582;2023-12-20T03:18:37;12.38;;;6.57;;
2868;SDS011;1442;47.448;8.582;2023-12-20T03:21:04;10.60;;;6.22;;
2868;SDS011;1442;47.448;8.582;2023-12-20T03:23:31;9.20;;;6.50;;
2868;SDS011;1442;47.448;8.582;2023-12-20T03:25:58;9.27;;;6.55;;
2868;SDS011;1442;47.448;8.582;2023-12-20T03:28:26;8.25;;;6.15;;
2868;SDS011;1442;47.448;8.582;2023-12-20T03:30:54;13.80;;;7.43;;
2868;SDS011;1442;47.448;8.582;2023-12-20T03:33:21;9.27;;;6.53;;
2868;SDS011;1442;47.448;8.582;2023-12-20T03:35:48;9.63;;;6.28;;
2868;SDS011;1442;47.448;8.582;2023-12-20T03:38:15;8.82;;;5.72;;
2868;SDS011;1442;47.448;8.582;2023-12-20T03:40:42;9.05;;;5.70;;
2868;SDS011;1442;47.448;8.582;2023-12-20T03:43:08;9.57;;;6.32;;
2868;SDS011;1442;47.448;8.582;2023-12-20T03:45:35;10.27;;;5.82;;
2868;SDS011;1442;47.448;8.582;2023-12-20T03:48:04;10.82;;;5.80;;
2868;SDS011;1442;47.448;8.582;2023-12-20T03:50:31;9.38;;;6.30;;
2868;SDS011;1442;47.448;8.582;2023-12-20T03:52:58;10.65;;;5.97;;
2868;SDS011;1442;47.448;8.582;2023-12-20T03:55:24;9.10;;;5.70;;
2868;SDS011;1442;47.448;8.582;2023-12-20T03:57:51;7.65;;;5.43;;
2868;SDS011;1442;47.448;8.582;2023-12-20T04:00:18;13.02;;;6.15;;
2868;SDS011;1442;47.448;8.582;2023-12-20T04:02:45;9.52;;;6.68;;
2868;SDS011;1442;47.448;8.582;2023-12-20T04:05:13;8.45;;;6.15;;
2868;SDS011;1442;47.448;8.582;2023-12-20T04:07:40;9.20;;;6.05;;
2868;SDS011;1442;47.448;8.582;2023-12-20T04:10:07;11.48;;;6.30;;
2868;SDS011;1442;47.448;8.582;2023-12-20T04:12:34;7.30;;;5.70;;
2868;SDS011;1442;47.448;8.582;2023-12-20T04:15:01;8.48;;;6.13;;
2868;SDS011;1442;47.448;8.582;2023-12-20T04:17:33;8.43;;;6.18;;
2868;SDS011;1442;47.448;8.582;2023-12-20T04:20:00;9.80;;;7.03;;
2868;SDS011;1442;47.448;8.582;2023-12-20T04:22:29;11.52;;;6.90;;
2868;SDS011;1442;47.448;8.582;2023-12-20T04:24:55;7.70;;;5.85;;
2868;SDS011;1442;47.448;8.582;2023-12-20T04:27:22;10.77;;;6.60;;
2868;SDS011;1442;47.448;8.582;2023-12-20T04:29:49;9.52;;;6.50;;
2868;SDS011;1442;47.448;8.582;2023-12-20T04:32:15;14.45;;;6.43;;
2868;SDS011;1442;47.448;8.582;2023-12-20T04:34:42;9.55;;;6.45;;
2868;SDS011;1442;47.448;8.582;2023-12-20T04:37:09;9.32;;;5.93;;
2868;SDS011;1442;47.448;8.582;2023-12-20T04:39:37;10.25;;;6.85;;
2868;SDS011;1442;47.448;8.582;2023-12-20T04:42:04;7.68;;;5.68;;
2868;SDS011;1442;47.448;8.582;2023-12-20T04:44:31;11.30;;;6.93;;
2868;SDS011;1442;47.448;8.582;2023-12-20T04:46:57;8.45;;;6.13;;
2868;SDS011;1442;47.448;8.582;2023-12-20T04:49:24;8.77;;;5.97;;
2868;SDS011;1442;47.448;8.582;2023-12-20T04:51:51;6.80;;;5.05;;
2868;SDS011;1442;47.448;8.582;2023-12-20T04:54:18;7.90;;;5.60;;
2868;SDS011;1442;47.448;8.582;2023-12-20T04:56:47;8.02;;;6.10;;
2868;SDS011;1442;47.448;8.582;2023-12-20T04:59:14;8.38;;;6.07;;
2868;SDS011;1442;47.448;8.582;2023-12-20T05:01:41;11.85;;;6.55;;
2868;SDS011;1442;47.448;8.582;2023-12-20T05:04:07;9.50;;;6.50;;
2868;SDS011;1442;47.448;8.582;2023-12-20T05:06:34;9.82;;;6.00;;
2868;SDS011;1442;47.448;8.582;2023-12-20T05:09:01;9.90;;;6.88;;
2868;SDS011;1442;47.448;8.582;2023-12-20T05:11:28;7.78;;;6.15;;
2868;SDS011;1442;47.448;8.582;2023-12-20T05:13:56;9.50;;;6.20;;
2868;SDS011;1442;47.448;8.582;2023-12-20T05:16:23;10.13;;;6.18;;
2868;SDS011;1442;47.448;8.582;2023-12-20T05:18:49;10.32;;;6.60;;
2868;SDS011;1442;47.448;8.582;2023-12-20T05:21:17;11.15;;;7.00;;
2868;SDS011;1442;47.448;8.582;2023-12-20T05:23:44;8.60;;;6.47;;
2868;SDS011;1442;47.448;8.582;2023-12-20T05:26:11;9.35;;;6.47;;
2868;SDS011;1442;47.448;8.582;2023-12-20T05:28:38;10.13;;;7.13;;
2868;SDS011;1442;47.448;8.582;2023-12-20T05:31:06;11.13;;;6.38;;
2868;SDS011;1442;47.448;8.582;2023-12-20T05:33:33;11.27;;;7.53;;
2868;SDS011;1442;47.448;8.582;2023-12-20T05:35:59;9.20;;;6.47;;
2868;SDS011;1442;47.448;8.582;2023-12-20T05:38:26;9.68;;;6.50;;
2868;SDS011;1442;47.448;8.582;2023-12-20T05:40:53;11.52;;;7.15;;
2868;SDS011;1442;47.448;8.582;2023-12-20T05:43:20;9.02;;;6.35;;
2868;SDS011;1442;47.448;8.582;2023-12-20T05:45:47;9.45;;;6.82;;
2868;SDS011;1442;47.448;8.582;2023-12-20T05:48:15;13.60;;;6.97;;
2868;SDS011;1442;47.448;8.582;2023-12-20T05:50:41;10.05;;;7.15;;
2868;SDS011;1442;47.448;8.582;2023-12-20T05:53:08;11.13;;;7.22;;
2868;SDS011;1442;47.448;8.582;2023-12-20T05:55:35;10.25;;;6.70;;
2868;SDS011;1442;47.448;8.582;2023-12-20T05:58:01;13.82;;;7.13;;
2868;SDS011;1442;47.448;8.582;2023-12-20T06:00:28;12.05;;;7.18;;
2868;SDS011;1442;47.448;8.582;2023-12-20T06:02:55;11.10;;;7.50;;
2868;SDS011;1442;47.448;8.582;2023-12-20T06:05:23;13.05;;;8.05;;
2868;SDS011;1442;47.448;8.582;2023-12-20T06:07:50;11.02;;;8.05;;
2868;SDS011;1442;47.448;8.582;2023-12-20T06:10:17;10.90;;;7.28;;
2868;SDS011;1442;47.448;8.582;2023-12-20T06:12:44;14.35;;;8.05;;
2868;SDS011;1442;47.448;8.582;2023-12-20T06:15:12;9.15;;;7.07;;
2868;SDS011;1442;47.448;8.582;2023-12-20T06:17:39;12.30;;;7.28;;
2868;SDS011;1442;47.448;8.582;2023-12-20T06:20:06;16.33;;;8.65;;
2868;SDS011;1442;47.448;8.582;2023-12-20T06:22:35;13.00;;;7.22;;
2868;SDS011;1442;47.448;8.582;2023-12-20T06:25:02;11.27;;;7.60;;
2868;SDS011;1442;47.448;8.582;2023-12-20T06:27:29;11.13;;;7.53;;
2868;SDS011;1442;47.448;8.582;2023-12-20T06:29:57;12.15;;;8.10;;
2868;SDS011;1442;47.448;8.582;2023-12-20T06:32:24;10.40;;;7.18;;
2868;SDS011;1442;47.448;8.582;2023-12-20T06:34:51;9.93;;;7.15;;
2868;SDS011;1442;47.448;8.582;2023-12-20T06:37:17;10.23;;;7.57;;
2868;SDS011;1442;47.448;8.582;2023-12-20T06:39:45;11.00;;;7.28;;
2868;SDS011;1442;47.448;8.582;2023-12-20T06:42:12;12.40;;;7.00;;
2868;SDS011;1442;47.448;8.582;2023-12-20T06:44:39;11.05;;;6.90;;
2868;SDS011;1442;47.448;8.582;2023-12-20T06:47:06;10.13;;;6.53;;
2868;SDS011;1442;47.448;8.582;2023-12-20T06:49:33;9.57;;;6.88;;
2868;SDS011;1442;47.448;8.582;2023-12-20T06:52:00;10.82;;;6.50;;
2868;SDS011;1442;47.448;8.582;2023-12-20T06:54:27;14.02;;;7.50;;
2868;SDS011;1442;47.448;8.582;2023-12-20T06:56:55;10.65;;;6.65;;
2868;SDS011;1442;47.448;8.582;2023-12-20T06:59:22;11.68;;;6.90;;
2868;SDS011;1442;47.448;8.582;2023-12-20T07:01:48;10.23;;;6.85;;
2868;SDS011;1442;47.448;8.582;2023-12-20T07:04:15;11.77;;;7.53;;
2868;SDS011;1442;47.448;8.582;2023-12-20T07:06:45;9.23;;;6.85;;
2868;SDS011;1442;47.448;8.582;2023-12-20T07:09:12;14.73;;;7.20;;
2868;SDS011;1442;47.448;8.582;2023-12-20T07:11:39;10.10;;;7.47;;
2868;SDS011;1442;47.448;8.582;2023-12-20T07:14:07;10.82;;;7.25;;
2868;SDS011;1442;47.448;8.582;2023-12-20T07:16:34;12.73;;;7.13;;
2868;SDS011;1442;47.448;8.582;2023-12-20T07:19:01;9.55;;;6.35;;
2868;SDS011;1442;47.448;8.582;2023-12-20T07:21:28;9.25;;;5.65;;
2868;SDS011;1442;47.448;8.582;2023-12-20T07:23:55;8.23;;;5.93;;
2868;SDS011;1442;47.448;8.582;2023-12-20T07:26:21;7.22;;;5.63;;
2868;SDS011;1442;47.448;8.582;2023-12-20T07:28:48;8.23;;;5.47;;
2868;SDS011;1442;47.448;8.582;2023-12-20T07:31:16;7.78;;;5.97;;
2868;SDS011;1442;47.448;8.582;2023-12-20T07:33:43;7.95;;;5.45;;
2868;SDS011;1442;47.448;8.582;2023-12-20T07:36:10;8.00;;;5.35;;
2868;SDS011;1442;47.448;8.582;2023-12-20T07:38:37;8.40;;;5.70;;
2868;SDS011;1442;47.448;8.582;2023-12-20T07:41:04;8.05;;;5.80;;
2868;SDS011;1442;47.448;8.582;2023-12-20T07:43:31;10.60;;;5.68;;
2868;SDS011;1442;47.448;8.582;2023-12-20T07:46:01;8.70;;;6.70;;
2868;SDS011;1442;47.448;8.582;2023-12-20T07:48:31;10.93;;;6.38;;
2868;SDS011;1442;47.448;8.582;2023-12-20T07:50:58;8.85;;;6.18;;
2868;SDS011;1442;47.448;8.582;2023-12-20T07:53:25;10.68;;;6.57;;
2868;SDS011;1442;47.448;8.582;2023-12-20T07:55:52;9.38;;;5.85;;
2868;SDS011;1442;47.448;8.582;2023-12-20T07:58:19;9.65;;;6.25;;
2868;SDS011;1442;47.448;8.582;2023-12-20T08:00:46;12.73;;;5.90;;
2868;SDS011;1442;47.448;8.582;2023-12-20T08:03:12;7.13;;;6.13;;
2868;SDS011;1442;47.448;8.582;2023-12-20T08:05:41;10.75;;;6.30;;
2868;SDS011;1442;47.448;8.582;2023-12-20T08:08:07;10.77;;;7.03;;
2868;SDS011;1442;47.448;8.582;2023-12-20T08:10:34;9.18;;;6.65;;
2868;SDS011;1442;47.448;8.582;2023-12-20T08:13:01;10.57;;;6.75;;
2868;SDS011;1442;47.448;8.582;2023-12-20T08:15:28;15.18;;;7.07;;
2868;SDS011;1442;47.448;8.582;2023-12-20T08:17:55;9.68;;;6.82;;
2868;SDS011;1442;47.448;8.582;2023-12-20T08:20:22;11.57;;;7.43;;
2868;SDS011;1442;47.448;8.582;2023-12-20T08:22:50;8.60;;;6.30;;
2868;SDS011;1442;47.448;8.582;2023-12-20T08:25:16;9.70;;;7.05;;
2868;SDS011;1442;47.448;8.582;2023-12-20T08:27:43;9.23;;;6.82;;
2868;SDS011;1442;47.448;8.582;2023-12-20T08:30:10;10.90;;;7.03;;
2868;SDS011;1442;47.448;8.582;2023-12-20T08:32:37;9.70;;;7.07;;
2868;SDS011;1442;47.448;8.582;2023-12-20T08:35:04;8.80;;;6.65;;
2868;SDS011;1442;47.448;8.582;2023-12-20T08:37:31;9.93;;;6.97;;
2868;SDS011;1442;47.448;8.582;2023-12-20T08:39:59;8.88;;;6.03;;
2868;SDS011;1442;47.448;8.582;2023-12-20T08:42:26;8.63;;;5.75;;
2868;SDS011;1442;47.448;8.582;2023-12-20T08:44:56;8.20;;;6.22;;
2868;SDS011;1442;47.448;8.582;2023-12-20T08:47:23;9.75;;;5.50;;
2868;SDS011;1442;47.448;8.582;2023-12-20T08:49:50;8.63;;;6.13;;
2868;SDS011;1442;47.448;8.582;2023-12-20T08:52:17;7.43;;;5.85;;
2868;SDS011;1442;47.448;8.582;2023-12-20T08:54:44;10.32;;;6.53;;
2868;SDS011;1442;47.448;8.582;2023-12-20T08:57:12;9.00;;;6.57;;
2868;SDS011;1442;47.448;8.582;2023-12-20T08:59:39;9.77;;;6.47;;
2868;SDS011;1442;47.448;8.582;2023-12-20T09:02:05;15.55;;;7.50;;
2868;SDS011;1442;47.448;8.582;2023-12-20T09:04:32;8.75;;;6.57;;
2868;SDS011;1442;47.448;8.582;2023-12-20T09:06:59;8.65;;;6.63;;
2868;SDS011;1442;47.448;8.582;2023-12-20T09:09:27;8.70;;;6.10;;
2868;SDS011;1442;47.448;8.582;2023-12-20T09:11:53;8.13;;;6.05;;
2868;SDS011;1442;47.448;8.582;2023-12-20T09:14:22;6.82;;;5.20;;
2868;SDS011;1442;47.448;8.582;2023-12-20T09:16:49;9.93;;;5.78;;
2868;SDS011;1442;47.448;8.582;2023-12-20T09:19:16;9.68;;;6.13;;
2868;SDS011;1442;47.448;8.582;2023-12-20T09:21:43;15.23;;;8.05;;
2868;SDS011;1442;47.448;8.582;2023-12-20T09:24:10;8.20;;;6.07;;
2868;SDS011;1442;47.448;8.582;2023-12-20T09:26:37;9.40;;;5.78;;
2868;SDS011;1442;47.448;8.582;2023-12-20T09:29:04;5.82;;;4.63;;
2868;SDS011;1442;47.448;8.582;2023-12-20T09:31:34;7.22;;;4.68;;
2868;SDS011;1442;47.448;8.582;2023-12-20T09:34:03;9.80;;;5.25;;
2868;SDS011;1442;47.448;8.582;2023-12-20T09:36:29;14.05;;;6.00;;
2868;SDS011;1442;47.448;8.582;2023-12-20T09:38:59;7.97;;;5.40;;
2868;SDS011;1442;47.448;8.582;2023-12-20T09:41:26;8.63;;;6.32;;
2868;SDS011;1442;47.448;8.582;2023-12-20T09:43:54;9.98;;;6.30;;
2868;SDS011;1442;47.448;8.582;2023-12-20T09:46:24;9.93;;;6.72;;
2868;SDS011;1442;47.448;8.582;2023-12-20T09:48:56;10.57;;;7.07;;
2868;SDS011;1442;47.448;8.582;2023-12-20T09:51:24;12.85;;;7.03;;
2868;SDS011;1442;47.448;8.582;2023-12-20T09:53:52;10.40;;;7.72;;
2868;SDS011;1442;47.448;8.582;2023-12-20T09:56:20;10.63;;;7.40;;
2868;SDS011;1442;47.448;8.582;2023-12-20T09:58:47;10.80;;;6.93;;
2868;SDS011;1442;47.448;8.582;2023-12-20T10:01:14;13.50;;;7.63;;
2868;SDS011;1442;47.448;8.582;2023-12-20T10:03:43;11.85;;;7.10;;
2868;SDS011;1442;47.448;8.582;2023-12-20T10:06:11;11.55;;;8.07;;
2868;SDS011;1442;47.448;8.582;2023-12-20T10:08:38;11.55;;;8.23;;
2868;SDS011;1442;47.448;8.582;2023-12-20T10:11:05;10.20;;;7.30;;
2868;SDS011;1442;47.448;8.582;2023-12-20T10:13:32;10.80;;;7.57;;
2868;SDS011;1442;47.448;8.582;2023-12-20T10:15:59;9.40;;;6.80;;
2868;SDS011;1442;47.448;8.582;2023-12-20T10:18:25;9.75;;;7.32;;
2868;SDS011;1442;47.448;8.582;2023-12-20T10:20:55;11.30;;;6.82;;
2868;SDS011;1442;47.448;8.582;2023-12-20T10:23:23;11.20;;;6.57;;
2868;SDS011;1442;47.448;8.582;2023-12-20T10:25:55;9.80;;;6.45;;
2868;SDS011;1442;47.448;8.582;2023-12-20T10:30:52;14.90;;;6.32;;
2868;SDS011;1442;47.448;8.582;2023-12-20T10:33:23;8.68;;;5.50;;
2868;SDS011;1442;47.448;8.582;2023-12-20T10:35:50;8.43;;;5.15;;
2868;SDS011;1442;47.448;8.582;2023-12-20T10:38:18;7.43;;;4.63;;
2868;SDS011;1442;47.448;8.582;2023-12-20T10:40:46;9.30;;;4.95;;
2868;SDS011;1442;47.448;8.582;2023-12-20T10:43:13;6.55;;;4.60;;
2868;SDS011;1442;47.448;8.582;2023-12-20T10:45:41;9.65;;;5.32;;
2868;SDS011;1442;47.448;8.582;2023-12-20T10:48:09;7.20;;;4.65;;
2868;SDS011;1442;47.448;8.582;2023-12-20T10:50:37;8.10;;;5.30;;
2868;SDS011;1442;47.448;8.582;2023-12-20T10:53:05;8.27;;;5.18;;
2868;SDS011;1442;47.448;8.582;2023-12-20T10:55:33;7.22;;;5.43;;
2868;SDS011;1442;47.448;8.582;2023-12-20T10:58:01;7.75;;;5.30;;
2868;SDS011;1442;47.448;8.582;2023-12-20T11:00:32;6.65;;;4.70;;
2868;SDS011;1442;47.448;8.582;2023-12-20T11:03:00;4.45;;;3.72;;
2868;SDS011;1442;47.448;8.582;2023-12-20T11:05:31;5.07;;;3.65;;
2868;SDS011;1442;47.448;8.582;2023-12-20T11:08:06;5.78;;;3.92;;
2868;SDS011;1442;47.448;8.582;2023-12-20T11:10:36;4.55;;;3.90;;
2868;SDS011;1442;47.448;8.582;2023-12-20T11:13:12;4.80;;;3.38;;
2868;SDS011;1442;47.448;8.582;2023-12-20T11:15:43;4.13;;;3.40;;
2868;SDS011;1442;47.448;8.582;2023-12-20T11:18:11;5.32;;;3.53;;
2868;SDS011;1442;47.448;8.582;2023-12-20T11:20:38;4.38;;;3.20;;
2868;SDS011;1442;47.448;8.582;2023-12-20T11:23:06;4.18;;;3.20;;
2868;SDS011;1442;47.448;8.582;2023-12-20T11:25:46;4.60;;;3.15;;
2868;SDS011;1442;47.448;8.582;2023-12-20T11:28:15;3.60;;;3.30;;
2868;SDS011;1442;47.448;8.582;2023-12-20T11:30:46;3.83;;;3.20;;
2868;SDS011;1442;47.448;8.582;2023-12-20T11:33:14;4.65;;;3.17;;
2868;SDS011;1442;47.448;8.582;2023-12-20T11:35:41;4.20;;;3.30;;
2868;SDS011;1442;47.448;8.582;2023-12-20T11:38:08;4.47;;;3.10;;
2868;SDS011;1442;47.448;8.582;2023-12-20T11:40:35;3.65;;;2.78;;
2868;SDS011;1442;47.448;8.582;2023-12-20T11:43:03;3.10;;;2.35;;
2868;SDS011;1442;47.448;8.582;2023-12-20T11:45:31;3.92;;;2.80;;
2868;SDS011;1442;47.448;8.582;2023-12-20T11:47:59;3.35;;;2.63;;
2868;SDS011;1442;47.448;8.582;2023-12-20T11:50:27;2.95;;;2.33;;
2868;SDS011;1442;47.448;8.582;2023-12-20T11:52:55;1.73;;;1.35;;
2868;SDS011;1442;47.448;8.582;2023-12-20T11:55:22;2.15;;;1.70;;
2868;SDS011;1442;47.448;8.582;2023-12-20T11:57:49;2.65;;;1.38;;
2868;SDS011;1442;47.448;8.582;2023-12-20T12:00:17;2.00;;;1.30;;
2868;SDS011;1442;47.448;8.582;2023-12-20T12:02:45;1.38;;;1.27;;
2868;SDS011;1442;47.448;8.582;2023-12-20T12:05:21;2.58;;;1.50;;
2868;SDS011;1442;47.448;8.582;2023-12-20T12:07:48;3.60;;;1.67;;
2868;SDS011;1442;47.448;8.582;2023-12-20T12:10:15;4.13;;;1.30;;
2868;SDS011;1442;47.448;8.582;2023-12-20T12:12:42;1.02;;;0.95;;
2868;SDS011;1442;47.448;8.582;2023-12-20T12:15:08;3.50;;;1.33;;
2868;SDS011;1442;47.448;8.582;2023-12-20T12:17:35;1.10;;;1.00;;
2868;SDS011;1442;47.448;8.582;2023-12-20T12:20:05;2.22;;;1.15;;
2868;SDS011;1442;47.448;8.582;2023-12-20T12:22:34;2.78;;;0.93;;
2868;SDS011;1442;47.448;8.582;2023-12-20T12:25:09;2.58;;;1.40;;
2868;SDS011;1442;47.448;8.582;2023-12-20T12:27:36;1.70;;;1.10;;
2868;SDS011;1442;47.448;8.582;2023-12-20T12:30:05;1.27;;;1.15;;
2868;SDS011;1442;47.448;8.582;2023-12-20T12:32:33;3.35;;;1.40;;
2868;SDS011;1442;47.448;8.582;2023-12-20T12:35:00;1.83;;;1.25;;
2868;SDS011;1442;47.448;8.582;2023-12-20T12:37:30;2.78;;;1.38;;
2868;SDS011;1442;47.448;8.582;2023-12-20T12:39:57;1.23;;;1.10;;
2868;SDS011;1442;47.448;8.582;2023-12-20T12:42:23;1.27;;;1.10;;
2868;SDS011;1442;47.448;8.582;2023-12-20T12:44:53;1.60;;;1.00;;
2868;SDS011;1442;47.448;8.582;2023-12-20T12:47:20;4.40;;;0.93;;
2868;SDS011;1442;47.448;8.582;2023-12-20T12:49:47;3.53;;;1.23;;
2868;SDS011;1442;47.448;8.582;2023-12-20T12:52:17;1.63;;;1.00;;
2868;SDS011;1442;47.448;8.582;2023-12-20T12:54:45;2.75;;;1.00;;
2868;SDS011;1442;47.448;8.582;2023-12-20T12:57:13;2.00;;;1.15;;
2868;SDS011;1442;47.448;8.582;2023-12-20T12:59:40;1.77;;;1.08;;
2868;SDS011;1442;47.448;8.582;2023-12-20T13:02:07;2.15;;;1.20;;
2868;SDS011;1442;47.448;8.582;2023-12-20T13:04:34;1.08;;;1.00;;
2868;SDS011;1442;47.448;8.582;2023-12-20T13:07:01;1.67;;;1.00;;
2868;SDS011;1442;47.448;8.582;2023-12-20T13:09:28;2.60;;;1.10;;
2868;SDS011;1442;47.448;8.582;2023-12-20T13:11:56;1.52;;;1.08;;
2868;SDS011;1442;47.448;8.582;2023-12-20T13:14:23;2.38;;;0.93;;
2868;SDS011;1442;47.448;8.582;2023-12-20T13:16:50;2.17;;;1.00;;
2868;SDS011;1442;47.448;8.582;2023-12-20T13:19:17;2.45;;;0.85;;
2868;SDS011;1442;47.448;8.582;2023-12-20T13:21:44;0.73;;;0.73;;
2868;SDS011;1442;47.448;8.582;2023-12-20T13:24:10;1.35;;;0.80;;
2868;SDS011;1442;47.448;8.582;2023-12-20T13:26:37;3.50;;;1.00;;
2868;SDS011;1442;47.448;8.582;2023-12-20T13:29:05;2.30;;;0.95;;
2868;SDS011;1442;47.448;8.582;2023-12-20T13:31:32;1.55;;;0.98;;
2868;SDS011;1442;47.448;8.582;2023-12-20T13:34:01;1.95;;;1.20;;
2868;SDS011;1442;47.448;8.582;2023-12-20T13:36:28;1.10;;;0.98;;
2868;SDS011;1442;47.448;8.582;2023-12-20T13:38:55;1.88;;;0.90;;
2868;SDS011;1442;47.448;8.582;2023-12-20T13:41:21;2.50;;;0.90;;
2868;SDS011;1442;47.448;8.582;2023-12-20T13:43:48;2.22;;;0.80;;
2868;SDS011;1442;47.448;8.582;2023-12-20T13:46:17;2.17;;;1.23;;
2868;SDS011;1442;47.448;8.582;2023-12-20T13:48:44;1.38;;;1.27;;
2868;SDS011;1442;47.448;8.582;2023-12-20T13:51:10;3.00;;;1.38;;
2868;SDS011;1442;47.448;8.582;2023-12-20T13:53:37;2.92;;;1.13;;
2868;SDS011;1442;47.448;8.582;2023-12-20T13:56:04;1.25;;;0.95;;
2868;SDS011;1442;47.448;8.582;2023-12-20T13:58:31;1.95;;;1.25;;
2868;SDS011;1442;47.448;8.582;2023-12-20T14:00:58;3.58;;;1.30;;
2868;SDS011;1442;47.448;8.582;2023-12-20T14:03:26;2.22;;;1.27;;
2868;SDS011;1442;47.448;8.582;2023-12-20T14:05:53;6.95;;;1.70;;
2868;SDS011;1442;47.448;8.582;2023-12-20T14:08:20;3.70;;;1.75;;
2868;SDS011;1442;47.448;8.582;2023-12-20T14:10:46;5.15;;;1.70;;
2868;SDS011;1442;47.448;8.582;2023-12-20T14:13:13;4.95;;;1.40;;
2868;SDS011;1442;47.448;8.582;2023-12-20T14:15:40;3.05;;;1.30;;
2868;SDS011;1442;47.448;8.582;2023-12-20T14:18:07;3.67;;;1.35;;
2868;SDS011;1442;47.448;8.582;2023-12-20T14:20:35;7.57;;;1.70;;
2868;SDS011;1442;47.448;8.582;2023-12-20T14:23:04;6.93;;;1.50;;
2868;SDS011;1442;47.448;8.582;2023-12-20T14:25:31;5.63;;;1.35;;
2868;SDS011;1442;47.448;8.582;2023-12-20T14:27:58;4.03;;;1.08;;
2868;SDS011;1442;47.448;8.582;2023-12-20T14:30:25;3.33;;;1.38;;
2868;SDS011;1442;47.448;8.582;2023-12-20T14:32:51;5.85;;;1.40;;
2868;SDS011;1442;47.448;8.582;2023-12-20T14:35:18;5.60;;;1.25;;
2868;SDS011;1442;47.448;8.582;2023-12-20T14:37:47;9.70;;;1.25;;
2868;SDS011;1442;47.448;8.582;2023-12-20T14:40:15;4.88;;;1.00;;
2868;SDS011;1442;47.448;8.582;2023-12-20T14:42:42;4.72;;;1.25;;
2868;SDS011;1442;47.448;8.582;2023-12-20T14:45:09;3.05;;;0.88;;
2868;SDS011;1442;47.448;8.582;2023-12-20T14:47:36;2.78;;;1.00;;
2868;SDS011;1442;47.448;8.582;2023-12-20T14:50:03;1.90;;;1.08;;
2868;SDS011;1442;47.448;8.582;2023-12-20T14:52:30;5.05;;;1.15;;
2868;SDS011;1442;47.448;8.582;2023-12-20T14:55:00;4.13;;;1.20;;
2868;SDS011;1442;47.448;8.582;2023-12-20T14:57:27;9.77;;;1.25;;
2868;SDS011;1442;47.448;8.582;2023-12-20T14:59:54;2.03;;;0.80;;
2868;SDS011;1442;47.448;8.582;2023-12-20T15:02:21;3.15;;;1.10;;
2868;SDS011;1442;47.448;8.582;2023-12-20T15:04:48;4.03;;;1.20;;
2868;SDS011;1442;47.448;8.582;2023-12-20T15:07:15;5.78;;;1.60;;
2868;SDS011;1442;47.448;8.582;2023-12-20T15:09:42;7.88;;;1.38;;
2868;SDS011;1442;47.448;8.582;2023-12-20T15:12:12;7.25;;;1.52;;
2868;SDS011;1442;47.448;8.582;2023-12-20T15:14:39;1.52;;;1.00;;